sensor_id;sensor_type;location;lat;lon;timestamp;pressure;altitude;pressure_sealevel;temperature;humidity
56006;BME280;41888;44.696;10.522;2023-04-09T00:01:08;100860.56;;;10.23;100.00
56006;BME280;41888;44.696;10.522;2023-04-09T00:03:34;100867.34;;;10.25;100.00
56006;BME280;41888;44.696;10.522;2023-04-09T00:06:01;100858.72;;;10.23;100.00
56006;BME280;41888;44.696;10.522;2023-04-09T00:08:28;100859.16;;;10.27;100.00
56006;BME280;41888;44.696;10.522;2023-04-09T00:10:56;100865.69;;;10.03;100.00
56006;BME280;41888;44.696;10.522;2023-04-09T00:13:22;100861.22;;;10.10;100.00
56006;BME280;41888;44.696;10.522;2023-04-09T00:15:48;100867.19;;;10.12;100.00
56006;BME280;41888;44.696;10.522;2023-04-09T00:18:14;100863.53;;;10.13;100.00
56006;BME280;41888;44.696;10.522;2023-04-09T00:20:42;100869.75;;;10.20;100.00
56006;BME280;41888;44.696;10.522;2023-04-09T00:23:08;100867.72;;;10.22;100.00
56006;BME280;41888;44.696;10.522;2023-04-09T00:25:35;100873.28;;;10.27;100.00
56006;BME280;41888;44.696;10.522;2023-04-09T00:28:01;100871.50;;;10.13;100.00
56006;BME280;41888;44.696;10.522;2023-04-09T00:30:30;100876.00;;;10.12;100.00
56006;BME280;41888;44.696;10.522;2023-04-09T00:32:57;100871.63;;;10.05;100.00
56006;BME280;41888;44.696;10.522;2023-04-09T00:35:23;100872.19;;;10.00;100.00
56006;BME280;41888;44.696;10.522;2023-04-09T00:37:50;100876.88;;;9.98;100.00
56006;BME280;41888;44.696;10.522;2023-04-09T00:40:16;100880.13;;;9.94;100.00
56006;BME280;41888;44.696;10.522;2023-04-09T00:42:42;100872.50;;;9.91;100.00
56006;BME280;41888;44.696;10.522;2023-04-09T00:45:09;100877.66;;;9.92;100.00
56006;BME280;41888;44.696;10.522;2023-04-09T00:47:35;100882.78;;;9.94;100.00
56006;BME280;41888;44.696;10.522;2023-04-09T00:50:02;100877.81;;;9.91;100.00
56006;BME280;41888;44.696;10.522;2023-04-09T00:52:29;100883.31;;;9.89;100.00
56006;BME280;41888;44.696;10.522;2023-04-09T00:55:02;100883.88;;;9.85;100.00
56006;BME280;41888;44.696;10.522;2023-04-09T00:57:29;100887.00;;;9.88;100.00
56006;BME280;41888;44.696;10.522;2023-04-09T00:59:55;100879.47;;;9.70;100.00
56006;BME280;41888;44.696;10.522;2023-04-09T01:02:21;100885.41;;;9.72;100.00
56006;BME280;41888;44.696;10.522;2023-04-09T01:04:48;100887.88;;;9.74;100.00
56006;BME280;41888;44.696;10.522;2023-04-09T01:09:54;100890.09;;;9.70;100.00
56006;BME280;41888;44.696;10.522;2023-04-09T01:12:37;100888.06;;;9.72;100.00
56006;BME280;41888;44.696;10.522;2023-04-09T01:15:14;100890.09;;;9.70;100.00
56006;BME280;41888;44.696;10.522;2023-04-09T01:18:18;100885.50;;;9.64;100.00
56006;BME280;41888;44.696;10.522;2023-04-09T01:21:04;100879.50;;;9.56;100.00
56006;BME280;41888;44.696;10.522;2023-04-09T01:26:57;100880.34;;;9.42;100.00
56006;BME280;41888;44.696;10.522;2023-04-09T01:29:38;100885.28;;;9.45;100.00
56006;BME280;41888;44.696;10.522;2023-04-09T01:32:07;100881.53;;;9.39;100.00
56006;BME280;41888;44.696;10.522;2023-04-09T01:34:34;100894.91;;;9.31;100.00
56006;BME280;41888;44.696;10.522;2023-04-09T01:37:02;100892.00;;;9.26;100.00
56006;BME280;41888;44.696;10.522;2023-04-09T01:39:29;100886.94;;;9.31;100.00
56006;BME280;41888;44.696;10.522;2023-04-09T01:41:55;100884.28;;;9.31;100.00
56006;BME280;41888;44.696;10.522;2023-04-09T01:44:23;100888.25;;;9.35;100.00
56006;BME280;41888;44.696;10.522;2023-04-09T01:46:51;100879.75;;;9.25;100.00
56006;BME280;41888;44.696;10.522;2023-04-09T01:49:18;100880.09;;;9.22;100.00
56006;BME280;41888;44.696;10.522;2023-04-09T01:51:44;100885.31;;;9.15;100.00
56006;BME280;41888;44.696;10.522;2023-04-09T01:54:10;100885.78;;;9.04;100.00
56006;BME280;41888;44.696;10.522;2023-04-09T01:56:44;100882.84;;;8.99;100.00
56006;BME280;41888;44.696;10.522;2023-04-09T01:59:11;100881.13;;;8.92;100.00
56006;BME280;41888;44.696;10.522;2023-04-09T02:01:43;100885.06;;;8.96;100.00
56006;BME280;41888;44.696;10.522;2023-04-09T02:04:20;100877.75;;;8.98;100.00
56006;BME280;41888;44.696;10.522;2023-04-09T02:07:47;100875.25;;;9.11;100.00
56006;BME280;41888;44.696;10.522;2023-04-09T02:09:54;100880.22;;;9.14;100.00
56006;BME280;41888;44.696;10.522;2023-04-09T02:12:23;100882.56;;;9.23;100.00
56006;BME280;41888;44.696;10.522;2023-04-09T02:14:51;100884.50;;;9.15;100.00
56006;BME280;41888;44.696;10.522;2023-04-09T02:17:19;100890.00;;;9.13;100.00
56006;BME280;41888;44.696;10.522;2023-04-09T02:19:46;100891.16;;;9.25;100.00
56006;BME280;41888;44.696;10.522;2023-04-09T02:22:14;100884.41;;;9.23;100.00
56006;BME280;41888;44.696;10.522;2023-04-09T02:24:41;100880.09;;;9.22;100.00
56006;BME280;41888;44.696;10.522;2023-04-09T02:27:07;100884.22;;;9.10;100.00
56006;BME280;41888;44.696;10.522;2023-04-09T02:29:34;100884.78;;;9.05;100.00
56006;BME280;41888;44.696;10.522;2023-04-09T02:32:00;100881.28;;;9.05;100.00
56006;BME280;41888;44.696;10.522;2023-04-09T02:34:26;100882.31;;;9.04;100.00
56006;BME280;41888;44.696;10.522;2023-04-09T02:36:52;100882.94;;;9.06;100.00
56006;BME280;41888;44.696;10.522;2023-04-09T02:39:18;100890.00;;;8.99;100.00
56006;BME280;41888;44.696;10.522;2023-04-09T02:41:45;100892.00;;;9.11;100.00
56006;BME280;41888;44.696;10.522;2023-04-09T02:44:11;100893.47;;;9.14;100.00
56006;BME280;41888;44.696;10.522;2023-04-09T02:46:38;100895.13;;;9.29;100.00
56006;BME280;41888;44.696;10.522;2023-04-09T02:49:04;100890.38;;;9.25;100.00
56006;BME280;41888;44.696;10.522;2023-04-09T02:51:30;100891.06;;;9.33;100.00
56006;BME280;41888;44.696;10.522;2023-04-09T02:53:59;100883.13;;;9.33;100.00
56006;BME280;41888;44.696;10.522;2023-04-09T02:56:25;100883.66;;;9.29;100.00
56006;BME280;41888;44.696;10.522;2023-04-09T02:58:51;100885.84;;;9.25;100.00
56006;BME280;41888;44.696;10.522;2023-04-09T03:01:19;100876.38;;;9.02;100.00
56006;BME280;41888;44.696;10.522;2023-04-09T03:03:46;100875.97;;;9.05;100.00
56006;BME280;41888;44.696;10.522;2023-04-09T03:06:12;100876.53;;;9.00;100.00
56006;BME280;41888;44.696;10.522;2023-04-09T03:08:38;100877.75;;;8.98;100.00
56006;BME280;41888;44.696;10.522;2023-04-09T03:11:04;100873.53;;;9.03;100.00
56006;BME280;41888;44.696;10.522;2023-04-09T03:13:31;100879.41;;;8.99;100.00
56006;BME280;41888;44.696;10.522;2023-04-09T03:15:57;100883.13;;;9.04;100.00
56006;BME280;41888;44.696;10.522;2023-04-09T03:18:23;100889.09;;;9.06;100.00
56006;BME280;41888;44.696;10.522;2023-04-09T03:20:49;100890.19;;;9.12;100.00
56006;BME280;41888;44.696;10.522;2023-04-09T03:23:15;100883.88;;;9.13;100.00
56006;BME280;41888;44.696;10.522;2023-04-09T03:25:41;100886.25;;;9.22;100.00
56006;BME280;41888;44.696;10.522;2023-04-09T03:28:08;100891.94;;;9.19;100.00
56006;BME280;41888;44.696;10.522;2023-04-09T03:30:34;100887.63;;;9.04;100.00
56006;BME280;41888;44.696;10.522;2023-04-09T03:33:00;100891.19;;;9.11;100.00
56006;BME280;41888;44.696;10.522;2023-04-09T03:35:26;100885.59;;;9.06;100.00
56006;BME280;41888;44.696;10.522;2023-04-09T03:37:52;100895.50;;;9.12;100.00
56006;BME280;41888;44.696;10.522;2023-04-09T03:40:19;100889.25;;;9.05;100.00
56006;BME280;41888;44.696;10.522;2023-04-09T03:42:45;100898.59;;;8.86;100.00
56006;BME280;41888;44.696;10.522;2023-04-09T03:45:11;100902.34;;;8.92;100.00
56006;BME280;41888;44.696;10.522;2023-04-09T03:47:37;100892.56;;;8.77;100.00
56006;BME280;41888;44.696;10.522;2023-04-09T03:50:04;100896.00;;;8.63;100.00
56006;BME280;41888;44.696;10.522;2023-04-09T03:52:30;100895.25;;;8.40;100.00
56006;BME280;41888;44.696;10.522;2023-04-09T03:54:56;100892.81;;;8.30;100.00
56006;BME280;41888;44.696;10.522;2023-04-09T03:57:22;100900.09;;;8.28;100.00
56006;BME280;41888;44.696;10.522;2023-04-09T03:59:48;100902.41;;;8.31;100.00
56006;BME280;41888;44.696;10.522;2023-04-09T04:02:14;100901.59;;;8.31;100.00
56006;BME280;41888;44.696;10.522;2023-04-09T04:04:41;100907.72;;;8.31;100.00
56006;BME280;41888;44.696;10.522;2023-04-09T04:07:07;100914.50;;;8.34;100.00
56006;BME280;41888;44.696;10.522;2023-04-09T04:09:33;100911.38;;;8.30;100.00
56006;BME280;41888;44.696;10.522;2023-04-09T04:12:00;100913.84;;;8.32;100.00
56006;BME280;41888;44.696;10.522;2023-04-09T04:14:26;100912.03;;;8.32;100.00
56006;BME280;41888;44.696;10.522;2023-04-09T04:16:53;100916.34;;;8.33;100.00
56006;BME280;41888;44.696;10.522;2023-04-09T04:19:19;100908.72;;;8.30;100.00
56006;BME280;41888;44.696;10.522;2023-04-09T04:21:45;100910.56;;;8.30;100.00
56006;BME280;41888;44.696;10.522;2023-04-09T04:24:11;100909.50;;;8.39;100.00
56006;BME280;41888;44.696;10.522;2023-04-09T04:26:39;100905.84;;;8.40;100.00
56006;BME280;41888;44.696;10.522;2023-04-09T04:29:05;100907.72;;;8.31;100.00
56006;BME280;41888;44.696;10.522;2023-04-09T04:31:31;100912.25;;;8.23;100.00
56006;BME280;41888;44.696;10.522;2023-04-09T04:33:57;100918.91;;;8.19;100.00
56006;BME280;41888;44.696;10.522;2023-04-09T04:36:23;100920.25;;;8.15;100.00
56006;BME280;41888;44.696;10.522;2023-04-09T04:38:49;100930.25;;;8.04;100.00
56006;BME280;41888;44.696;10.522;2023-04-09T04:41:16;100938.41;;;8.03;100.00
56006;BME280;41888;44.696;10.522;2023-04-09T04:43:42;100936.91;;;8.00;100.00
56006;BME280;41888;44.696;10.522;2023-04-09T04:46:08;100939.72;;;7.99;100.00
56006;BME280;41888;44.696;10.522;2023-04-09T04:48:34;100939.28;;;8.18;100.00
56006;BME280;41888;44.696;10.522;2023-04-09T04:51:01;100931.13;;;8.20;100.00
56006;BME280;41888;44.696;10.522;2023-04-09T04:53:27;100936.19;;;8.37;100.00
56006;BME280;41888;44.696;10.522;2023-04-09T04:55:54;100936.88;;;8.31;100.00
56006;BME280;41888;44.696;10.522;2023-04-09T04:58:20;100947.69;;;8.22;100.00
56006;BME280;41888;44.696;10.522;2023-04-09T05:00:46;100937.25;;;8.20;100.00
56006;BME280;41888;44.696;10.522;2023-04-09T05:03:13;100942.41;;;8.22;100.00
56006;BME280;41888;44.696;10.522;2023-04-09T05:05:39;100944.59;;;8.18;100.00
56006;BME280;41888;44.696;10.522;2023-04-09T05:08:05;100946.25;;;8.42;100.00
56006;BME280;41888;44.696;10.522;2023-04-09T05:10:31;100946.34;;;8.71;100.00
56006;BME280;41888;44.696;10.522;2023-04-09T05:12:58;100946.09;;;8.96;100.00
56006;BME280;41888;44.696;10.522;2023-04-09T05:15:24;100955.59;;;8.90;100.00
56006;BME280;41888;44.696;10.522;2023-04-09T05:17:50;100961.03;;;8.59;100.00
56006;BME280;41888;44.696;10.522;2023-04-09T05:20:16;100965.09;;;8.47;100.00
56006;BME280;41888;44.696;10.522;2023-04-09T05:22:42;100956.09;;;8.25;100.00
56006;BME280;41888;44.696;10.522;2023-04-09T05:25:09;100958.00;;;8.17;100.00
56006;BME280;41888;44.696;10.522;2023-04-09T05:27:35;100952.00;;;8.23;100.00
56006;BME280;41888;44.696;10.522;2023-04-09T05:30:01;100961.66;;;8.16;100.00
56006;BME280;41888;44.696;10.522;2023-04-09T05:32:28;100962.66;;;8.15;100.00
56006;BME280;41888;44.696;10.522;2023-04-09T05:34:54;100959.97;;;8.23;100.00
56006;BME280;41888;44.696;10.522;2023-04-09T05:37:20;100971.72;;;8.51;100.00
56006;BME280;41888;44.696;10.522;2023-04-09T05:39:47;100970.28;;;9.45;100.00
56006;BME280;41888;44.696;10.522;2023-04-09T05:42:13;100973.69;;;10.95;100.00
56006;BME280;41888;44.696;10.522;2023-04-09T05:44:39;100986.31;;;12.51;100.00
56006;BME280;41888;44.696;10.522;2023-04-09T05:47:05;100991.88;;;13.15;100.00
56006;BME280;41888;44.696;10.522;2023-04-09T05:49:32;100988.75;;;13.95;99.13
56006;BME280;41888;44.696;10.522;2023-04-09T05:51:58;100993.41;;;14.51;93.15
56006;BME280;41888;44.696;10.522;2023-04-09T05:54:24;100994.88;;;14.47;90.62
56006;BME280;41888;44.696;10.522;2023-04-09T05:56:51;101001.63;;;15.67;85.58
56006;BME280;41888;44.696;10.522;2023-04-09T05:59:17;101002.72;;;15.96;81.48
56006;BME280;41888;44.696;10.522;2023-04-09T06:01:43;101003.63;;;15.90;82.02
56006;BME280;41888;44.696;10.522;2023-04-09T06:04:10;100993.38;;;16.17;81.77
56006;BME280;41888;44.696;10.522;2023-04-09T06:06:37;101000.66;;;16.28;78.93
56006;BME280;41888;44.696;10.522;2023-04-09T06:09:04;101004.88;;;16.65;75.53
56006;BME280;41888;44.696;10.522;2023-04-09T06:11:31;101003.41;;;16.81;74.62
56006;BME280;41888;44.696;10.522;2023-04-09T06:13:57;101004.88;;;16.35;73.59
56006;BME280;41888;44.696;10.522;2023-04-09T06:16:23;101013.59;;;17.02;72.21
56006;BME280;41888;44.696;10.522;2023-04-09T06:18:49;101004.88;;;17.82;69.20
56006;BME280;41888;44.696;10.522;2023-04-09T06:21:18;101013.31;;;18.70;65.62
56006;BME280;41888;44.696;10.522;2023-04-09T06:23:45;101021.63;;;18.85;64.69
56006;BME280;41888;44.696;10.522;2023-04-09T06:26:11;101017.16;;;19.08;61.97
56006;BME280;41888;44.696;10.522;2023-04-09T06:28:37;101021.72;;;19.24;62.74
56006;BME280;41888;44.696;10.522;2023-04-09T06:31:03;101031.53;;;18.96;61.84
56006;BME280;41888;44.696;10.522;2023-04-09T06:33:30;101029.59;;;17.55;66.06
56006;BME280;41888;44.696;10.522;2023-04-09T06:35:56;101031.59;;;18.11;66.60
56006;BME280;41888;44.696;10.522;2023-04-09T06:38:22;101043.50;;;17.41;67.98
56006;BME280;41888;44.696;10.522;2023-04-09T06:40:48;101041.19;;;18.92;64.19
56006;BME280;41888;44.696;10.522;2023-04-09T06:43:14;101049.28;;;19.64;58.92
56006;BME280;41888;44.696;10.522;2023-04-09T06:45:40;101047.47;;;19.70;58.99
56006;BME280;41888;44.696;10.522;2023-04-09T06:48:07;101040.13;;;20.57;55.66
56006;BME280;41888;44.696;10.522;2023-04-09T06:50:33;101055.56;;;21.63;52.32
56006;BME280;41888;44.696;10.522;2023-04-09T06:52:59;101054.63;;;21.89;50.68
56006;BME280;41888;44.696;10.522;2023-04-09T06:55:25;101057.47;;;22.14;50.03
56006;BME280;41888;44.696;10.522;2023-04-09T06:57:52;101064.66;;;21.83;50.36
56006;BME280;41888;44.696;10.522;2023-04-09T07:00:18;101057.81;;;20.97;54.01
56006;BME280;41888;44.696;10.522;2023-04-09T07:02:44;101057.41;;;20.08;58.04
56006;BME280;41888;44.696;10.522;2023-04-09T07:05:10;101052.06;;;18.41;63.52
56006;BME280;41888;44.696;10.522;2023-04-09T07:07:36;101059.31;;;17.49;68.37
56006;BME280;41888;44.696;10.522;2023-04-09T07:10:03;101043.56;;;16.87;73.58
56006;BME280;41888;44.696;10.522;2023-04-09T07:12:32;101045.06;;;15.76;78.19
56006;BME280;41888;44.696;10.522;2023-04-09T07:15:04;101038.38;;;14.43;86.81
56006;BME280;41888;44.696;10.522;2023-04-09T07:17:31;101043.97;;;13.77;95.00
56006;BME280;41888;44.696;10.522;2023-04-09T07:19:58;101041.47;;;13.88;96.24
56006;BME280;41888;44.696;10.522;2023-04-09T07:22:25;101036.69;;;13.26;100.00
56006;BME280;41888;44.696;10.522;2023-04-09T07:24:52;101035.41;;;12.83;100.00
56006;BME280;41888;44.696;10.522;2023-04-09T07:27:25;101033.13;;;12.66;100.00
56006;BME280;41888;44.696;10.522;2023-04-09T07:29:56;101035.19;;;12.91;100.00
56006;BME280;41888;44.696;10.522;2023-04-09T07:32:23;101031.69;;;12.51;100.00
56006;BME280;41888;44.696;10.522;2023-04-09T07:34:54;101040.53;;;12.91;100.00
56006;BME280;41888;44.696;10.522;2023-04-09T07:37:21;101040.84;;;12.28;100.00
56006;BME280;41888;44.696;10.522;2023-04-09T07:39:48;101036.63;;;11.93;100.00
56006;BME280;41888;44.696;10.522;2023-04-09T07:42:14;101038.72;;;12.11;100.00
56006;BME280;41888;44.696;10.522;2023-04-09T07:44:41;101045.59;;;12.26;100.00
56006;BME280;41888;44.696;10.522;2023-04-09T07:47:07;101044.53;;;12.27;100.00
56006;BME280;41888;44.696;10.522;2023-04-09T07:49:35;101051.00;;;12.53;100.00
56006;BME280;41888;44.696;10.522;2023-04-09T07:52:03;101054.56;;;13.13;100.00
56006;BME280;41888;44.696;10.522;2023-04-09T07:54:29;101055.47;;;12.46;100.00
56006;BME280;41888;44.696;10.522;2023-04-09T07:56:59;101043.53;;;12.28;100.00
56006;BME280;41888;44.696;10.522;2023-04-09T07:59:26;101056.09;;;12.48;100.00
56006;BME280;41888;44.696;10.522;2023-04-09T08:01:53;101062.94;;;12.83;100.00
56006;BME280;41888;44.696;10.522;2023-04-09T08:04:19;101057.00;;;13.07;100.00
56006;BME280;41888;44.696;10.522;2023-04-09T08:06:45;101055.50;;;12.52;100.00
56006;BME280;41888;44.696;10.522;2023-04-09T08:09:16;101064.38;;;12.79;100.00
56006;BME280;41888;44.696;10.522;2023-04-09T08:11:43;101058.44;;;12.84;100.00
56006;BME280;41888;44.696;10.522;2023-04-09T08:14:11;101056.91;;;12.42;100.00
56006;BME280;41888;44.696;10.522;2023-04-09T08:16:42;101056.97;;;12.75;100.00
56006;BME280;41888;44.696;10.522;2023-04-09T08:19:09;101059.75;;;12.34;100.00
56006;BME280;41888;44.696;10.522;2023-04-09T08:21:40;101061.09;;;13.03;100.00
56006;BME280;41888;44.696;10.522;2023-04-09T08:24:10;101067.50;;;13.29;100.00
56006;BME280;41888;44.696;10.522;2023-04-09T08:26:40;101069.97;;;13.17;100.00
56006;BME280;41888;44.696;10.522;2023-04-09T08:29:07;101079.84;;;13.30;100.00
56006;BME280;41888;44.696;10.522;2023-04-09T08:31:34;101074.09;;;13.26;100.00
56006;BME280;41888;44.696;10.522;2023-04-09T08:34:02;101084.72;;;13.72;100.00
56006;BME280;41888;44.696;10.522;2023-04-09T08:36:28;101083.06;;;13.65;100.00
56006;BME280;41888;44.696;10.522;2023-04-09T08:38:55;101080.25;;;13.14;100.00
56006;BME280;41888;44.696;10.522;2023-04-09T08:41:25;101082.94;;;13.27;100.00
56006;BME280;41888;44.696;10.522;2023-04-09T08:43:55;101080.00;;;13.08;100.00
56006;BME280;41888;44.696;10.522;2023-04-09T08:46:22;101074.03;;;13.59;100.00
56006;BME280;41888;44.696;10.522;2023-04-09T08:48:49;101079.78;;;13.69;100.00
56006;BME280;41888;44.696;10.522;2023-04-09T08:51:25;101067.97;;;13.96;100.00
56006;BME280;41888;44.696;10.522;2023-04-09T08:53:58;101081.59;;;13.75;99.85
56006;BME280;41888;44.696;10.522;2023-04-09T08:56:25;101068.31;;;13.09;100.00
56006;BME280;41888;44.696;10.522;2023-04-09T08:58:52;101073.22;;;13.59;100.00
56006;BME280;41888;44.696;10.522;2023-04-09T09:03:58;101076.78;;;14.04;100.00
56006;BME280;41888;44.696;10.522;2023-04-09T09:06:26;101078.25;;;14.06;100.00
56006;BME280;41888;44.696;10.522;2023-04-09T09:09:13;101069.50;;;14.24;98.36
56006;BME280;41888;44.696;10.522;2023-04-09T09:11:44;101078.34;;;14.31;97.00
56006;BME280;41888;44.696;10.522;2023-04-09T09:14:15;101070.50;;;14.43;93.74
56006;BME280;41888;44.696;10.522;2023-04-09T09:16:44;101071.13;;;14.31;92.70
56006;BME280;41888;44.696;10.522;2023-04-09T09:19:30;101076.09;;;14.66;93.32
56006;BME280;41888;44.696;10.522;2023-04-09T09:22:05;101073.56;;;14.77;94.56
56006;BME280;41888;44.696;10.522;2023-04-09T09:24:45;101077.03;;;14.47;90.94
56006;BME280;41888;44.696;10.522;2023-04-09T09:27:33;101078.72;;;14.41;88.00
56006;BME280;41888;44.696;10.522;2023-04-09T09:30:02;101076.22;;;14.46;89.10
56006;BME280;41888;44.696;10.522;2023-04-09T09:32:30;101078.16;;;14.26;90.88
56006;BME280;41888;44.696;10.522;2023-04-09T09:35:03;101083.72;;;14.24;83.50
56006;BME280;41888;44.696;10.522;2023-04-09T09:37:30;101071.81;;;14.14;87.95
56006;BME280;41888;44.696;10.522;2023-04-09T09:39:57;101078.72;;;14.34;86.25
56006;BME280;41888;44.696;10.522;2023-04-09T09:42:23;101077.06;;;14.78;84.15
56006;BME280;41888;44.696;10.522;2023-04-09T09:44:49;101075.22;;;14.78;82.21
56006;BME280;41888;44.696;10.522;2023-04-09T09:47:18;101075.44;;;14.32;83.42
56006;BME280;41888;44.696;10.522;2023-04-09T09:49:46;101071.47;;;13.97;80.13
56006;BME280;41888;44.696;10.522;2023-04-09T09:52:12;101077.59;;;14.55;83.17
56006;BME280;41888;44.696;10.522;2023-04-09T09:54:44;101071.19;;;14.94;81.43
56006;BME280;41888;44.696;10.522;2023-04-09T09:57:13;101063.84;;;15.08;81.39
56006;BME280;41888;44.696;10.522;2023-04-09T09:59:52;101061.78;;;15.10;81.47
56006;BME280;41888;44.696;10.522;2023-04-09T10:02:23;101058.28;;;14.53;84.40
56006;BME280;41888;44.696;10.522;2023-04-09T10:04:59;101054.53;;;14.54;81.63
56006;BME280;41888;44.696;10.522;2023-04-09T10:07:25;101064.78;;;14.26;83.38
56006;BME280;41888;44.696;10.522;2023-04-09T10:09:53;101054.94;;;14.13;86.31
56006;BME280;41888;44.696;10.522;2023-04-09T10:12:22;101069.16;;;14.58;81.98
56006;BME280;41888;44.696;10.522;2023-04-09T10:14:51;101061.03;;;15.28;76.50
56006;BME280;41888;44.696;10.522;2023-04-09T10:17:18;101055.00;;;15.50;72.61
56006;BME280;41888;44.696;10.522;2023-04-09T10:20:15;101059.09;;;15.10;73.04
56006;BME280;41888;44.696;10.522;2023-04-09T10:22:45;101056.50;;;15.46;72.25
56006;BME280;41888;44.696;10.522;2023-04-09T10:25:13;101052.31;;;15.50;75.70
56006;BME280;41888;44.696;10.522;2023-04-09T10:27:39;101052.97;;;15.52;77.19
56006;BME280;41888;44.696;10.522;2023-04-09T10:30:07;101055.19;;;15.92;75.02
56006;BME280;41888;44.696;10.522;2023-04-09T10:32:35;101050.13;;;15.66;75.04
56006;BME280;41888;44.696;10.522;2023-04-09T10:35:02;101050.75;;;15.68;73.85
56006;BME280;41888;44.696;10.522;2023-04-09T10:37:29;101049.03;;;15.05;75.29
56006;BME280;41888;44.696;10.522;2023-04-09T10:39:56;101052.34;;;14.76;76.19
56006;BME280;41888;44.696;10.522;2023-04-09T10:42:36;101047.25;;;15.17;74.64
56006;BME280;41888;44.696;10.522;2023-04-09T10:45:09;101041.56;;;14.58;77.23
56006;BME280;41888;44.696;10.522;2023-04-09T10:47:37;101036.94;;;15.21;77.13
56006;BME280;41888;44.696;10.522;2023-04-09T10:50:24;101051.34;;;15.70;72.03
56006;BME280;41888;44.696;10.522;2023-04-09T10:52:55;101043.84;;;16.08;69.24
56006;BME280;41888;44.696;10.522;2023-04-09T10:55:49;101038.28;;;16.39;65.36
56006;BME280;41888;44.696;10.522;2023-04-09T10:58:18;101040.66;;;15.81;67.98
56006;BME280;41888;44.696;10.522;2023-04-09T11:00:49;101040.75;;;15.75;67.64
56006;BME280;41888;44.696;10.522;2023-04-09T11:03:20;101035.41;;;15.75;66.68
56006;BME280;41888;44.696;10.522;2023-04-09T11:05:52;101045.78;;;16.79;63.59
56006;BME280;41888;44.696;10.522;2023-04-09T11:08:19;101028.03;;;16.18;64.93
56006;BME280;41888;44.696;10.522;2023-04-09T11:10:47;101031.16;;;15.85;66.89
56006;BME280;41888;44.696;10.522;2023-04-09T11:13:17;101031.50;;;15.71;67.24
56006;BME280;41888;44.696;10.522;2023-04-09T11:15:45;101032.69;;;16.82;65.89
56006;BME280;41888;44.696;10.522;2023-04-09T11:18:21;101031.00;;;15.62;65.91
56006;BME280;41888;44.696;10.522;2023-04-09T11:20:48;101032.97;;;15.05;69.29
56006;BME280;41888;44.696;10.522;2023-04-09T11:23:16;101034.78;;;15.30;67.39
56006;BME280;41888;44.696;10.522;2023-04-09T11:25:46;101028.69;;;15.23;67.21
56006;BME280;41888;44.696;10.522;2023-04-09T11:28:13;101017.31;;;15.45;68.67
56006;BME280;41888;44.696;10.522;2023-04-09T11:30:39;101025.97;;;15.47;68.64
56006;BME280;41888;44.696;10.522;2023-04-09T11:33:06;101023.03;;;16.22;66.18
56006;BME280;41888;44.696;10.522;2023-04-09T11:35:34;101012.50;;;16.38;64.89
56006;BME280;41888;44.696;10.522;2023-04-09T11:38:06;101020.56;;;16.20;63.39
56006;BME280;41888;44.696;10.522;2023-04-09T11:40:32;101020.78;;;15.71;63.89
56006;BME280;41888;44.696;10.522;2023-04-09T11:42:58;101015.25;;;15.84;63.51
56006;BME280;41888;44.696;10.522;2023-04-09T11:45:27;101016.13;;;16.44;62.33
56006;BME280;41888;44.696;10.522;2023-04-09T11:47:54;101003.16;;;16.11;65.65
56006;BME280;41888;44.696;10.522;2023-04-09T11:50:21;101012.94;;;16.77;61.58
56006;BME280;41888;44.696;10.522;2023-04-09T11:52:48;101006.63;;;16.71;61.23
56006;BME280;41888;44.696;10.522;2023-04-09T11:55:26;101003.28;;;16.46;59.55
56006;BME280;41888;44.696;10.522;2023-04-09T11:57:57;101015.72;;;16.59;60.44
56006;BME280;41888;44.696;10.522;2023-04-09T12:00:26;101005.56;;;16.31;61.37
56006;BME280;41888;44.696;10.522;2023-04-09T12:03:03;101001.56;;;15.55;61.52
56006;BME280;41888;44.696;10.522;2023-04-09T12:05:31;101003.75;;;15.40;64.26
56006;BME280;41888;44.696;10.522;2023-04-09T12:08:03;100999.22;;;16.25;62.29
56006;BME280;41888;44.696;10.522;2023-04-09T12:10:35;100996.91;;;15.99;64.12
56006;BME280;41888;44.696;10.522;2023-04-09T12:13:09;100996.78;;;15.57;64.46
56006;BME280;41888;44.696;10.522;2023-04-09T12:15:39;100993.66;;;15.79;62.95
56006;BME280;41888;44.696;10.522;2023-04-09T12:18:11;100985.97;;;15.82;62.82
56006;BME280;41888;44.696;10.522;2023-04-09T12:20:40;100996.09;;;16.28;62.16
56006;BME280;41888;44.696;10.522;2023-04-09T12:23:07;100997.94;;;16.58;60.51
56006;BME280;41888;44.696;10.522;2023-04-09T12:25:44;100988.44;;;15.84;61.55
56006;BME280;41888;44.696;10.522;2023-04-09T12:28:14;100993.22;;;15.63;62.17
56006;BME280;41888;44.696;10.522;2023-04-09T12:30:41;100992.19;;;15.40;63.67
56006;BME280;41888;44.696;10.522;2023-04-09T12:33:07;100977.56;;;15.17;63.95
56006;BME280;41888;44.696;10.522;2023-04-09T12:35:34;100971.88;;;15.87;62.64
56006;BME280;41888;44.696;10.522;2023-04-09T12:38:00;100982.84;;;16.57;57.81
56006;BME280;41888;44.696;10.522;2023-04-09T12:40:27;100975.00;;;17.08;56.73
56006;BME280;41888;44.696;10.522;2023-04-09T12:42:53;100976.63;;;17.09;55.87
56006;BME280;41888;44.696;10.522;2023-04-09T12:45:19;100974.91;;;16.92;57.58
56006;BME280;41888;44.696;10.522;2023-04-09T12:47:46;100980.69;;;16.77;57.30
56006;BME280;41888;44.696;10.522;2023-04-09T12:50:13;100975.84;;;16.14;57.95
56006;BME280;41888;44.696;10.522;2023-04-09T12:52:40;100972.13;;;16.57;57.86